Latest Weather Observations for Canberra

IDN60901

Issued at 3:21 pm EDT Saturday 20 December 2014 (issued every 10 minutes, with the page automatically refreshed every 10 minutes)

About weather observations | Map of Canberra area stations | Latest observations for Canberra area | Other Formats
Station Details ID: 070351 Name: CANBERRA AIRPORT Lat: -35.31 Lon: 149.20 Height: 577.05 m
Data from the previous 72 hours. | See also: Recent months at Canberra
Date/Time
EDT
Tmp

°C
App
Tmp
°C
Dew
Point
°C
Rel
Hum
%
Delta-T

°C
Wind Press
QNH
hPa
Press
MSL
hPa
Rain
since
9 am
mm
Dir
 
Spd
km/h
Gust
km/h
Spd
kts
Gust
kts
20/03:00pm 25.2 23.3 9.1 36 9.0 NW 9 15 5 8 1015.6 1013.5 0.0
20/02:30pm 24.8 22.5 9.1 37 8.7 W 11 26 6 14 1015.9 - 0.0
20/02:00pm 24.3 22.0 9.1 38 8.4 WSW 11 20 6 11 1016.1 - 0.0
20/01:30pm 24.5 22.2 10.4 41 8.0 SW 13 19 7 10 1016.4 - 0.0
20/12:30pm 21.6 20.0 8.8 44 7.0 NNE 7 17 4 9 1017.5 - 0.0
20/12:00pm 21.4 19.0 9.9 48 6.4 WNW 13 19 7 10 1017.7 1015.6 0.0
20/11:30am 19.5 17.4 8.2 48 6.0 NNW 9 15 5 8 1018.0 - 0.0
20/11:00am 18.7 17.0 10.0 57 4.8 NNE 9 13 5 7 1018.2 - 0.0
20/10:30am 17.7 16.2 9.3 58 4.5 SSE 7 11 4 6 1018.4 - 0.0
20/10:00am 16.7 14.8 8.9 60 4.1 N 9 17 5 9 1018.6 - 0.0
20/09:30am 16.1 14.3 9.3 64 3.6 N 9 13 5 7 1018.9 - 0.0
20/09:22am 15.6 13.5 8.4 62 3.8 N 9 13 5 7 1018.9 - 0.0
20/09:00am 14.6 12.7 9.0 69 2.9 N 9 13 5 7 1018.9 1016.9 0.0
20/08:30am 14.3 12.7 8.7 69 2.9 E 7 13 4 7 1018.9 - 0.0
20/08:00am 13.7 12.2 9.0 73 2.5 ESE 7 13 4 7 1018.7 - 0.0
20/07:00am 12.4 11.3 9.8 84 1.4 SE 6 7 3 4 1018.3 - 0.0
20/06:30am 11.5 9.6 9.2 86 1.2 ESE 9 11 5 6 1018.1 - 0.0
20/06:00am 10.9 9.2 8.5 85 1.2 E 7 7 4 4 1018.0 1016.0 0.0
20/05:53am 10.9 9.1 8.1 83 1.4 ESE 7 9 4 5 1018.0 - 0.0
20/05:33am 11.7 10.2 8.6 81 1.6 E 6 7 3 4 1017.8 - 0.0
20/05:30am 11.7 10.2 8.4 80 1.7 E 6 7 3 4 1017.8 - 0.0
20/05:00am 12.1 10.5 8.6 79 1.8 E 7 7 4 4 1017.7 - 0.0
20/04:30am 12.8 11.4 8.9 77 2.0 ENE 6 9 3 5 1017.5 - 0.0
20/04:23am 12.9 11.5 8.8 76 2.1 E 6 7 3 4 1017.5 - 0.0
20/04:00am 13.0 11.5 9.1 77 2.0 E 7 11 4 6 1017.7 - 0.0
20/03:30am 13.0 11.1 8.9 76 2.1 E 9 11 5 6 1017.7 - 0.0
20/03:00am 13.1 10.4 8.8 75 2.2 ENE 13 17 7 9 1017.9 1015.9 0.0
20/02:42am 13.1 11.2 9.0 76 2.1 E 9 13 5 7 1017.9 - 0.0
20/02:30am 13.1 11.2 9.0 76 2.1 E 9 11 5 6 1017.9 - 0.0
20/02:00am 13.0 11.4 8.9 76 2.1 SE 7 9 4 5 1018.2 - 0.0
20/01:30am 13.0 11.5 9.1 77 2.0 E 7 11 4 6 1018.4 - 0.0
20/01:00am 12.9 12.0 9.2 78 1.9 SSE 4 15 2 8 1018.6 - 0.0
20/12:30am 12.6 11.3 9.1 79 1.8 NE 6 9 3 5 1018.7 - 0.0
20/12:17am 12.3 10.9 9.0 80 1.7 ESE 6 9 3 5 1018.7 - 0.0
20/12:00am 12.0 10.5 8.5 79 1.8 E 6 9 3 5 1018.8 1016.8 0.0
 
Date/Time
EDT
Tmp

°C
App
Tmp
°C
Dew
Point
°C
Rel
Hum
%
Delta-T

°C
Wind Press
QNH
hPa
Press
MSL
hPa
Rain
since
9 am
mm
Dir
 
Spd
km/h
Gust
km/h
Spd
kts
Gust
kts
19/11:30pm 12.3 10.3 8.6 78 1.9 E 9 11 5 6 1018.8 - 0.0
19/11:00pm 12.6 9.1 8.7 77 2.0 E 17 26 9 14 1018.8 - 0.0
19/10:30pm 12.7 9.5 8.6 76 2.1 E 15 28 8 15 1018.7 - 0.0
19/10:00pm 13.1 9.6 8.8 75 2.2 E 17 24 9 13 1018.3 - 0.0
19/09:30pm 13.3 9.4 8.8 74 2.3 E 19 28 10 15 1017.7 - 0.0
19/09:00pm 13.8 8.5 8.6 71 2.7 E 26 37 14 20 1017.2 - 0.0
19/08:30pm 14.5 9.3 8.7 68 3.0 E 26 35 14 19 1016.7 - 0.0
19/08:09pm 15.2 9.6 8.7 65 3.4 E 28 46 15 25 1016.2 - 0.0
19/08:00pm 15.6 9.2 8.6 63 3.7 E 32 46 17 25 1016.0 - 0.0
19/07:30pm 16.8 10.8 8.8 59 4.2 E 30 39 16 21 1015.0 - 0.0
19/07:00pm 18.6 10.6 9.1 54 5.1 E 41 50 22 27 1013.9 - 0.0
19/06:51pm 19.7 12.1 9.0 50 5.8 E 39 50 21 27 1013.3 - 0.0
19/06:30pm 24.6 20.1 4.4 27 10.3 W 17 28 9 15 1013.0 - 0.0
19/06:00pm 24.2 19.4 4.6 28 10.1 W 19 28 10 15 1012.3 1010.2 0.0
19/05:30pm 24.2 19.5 5.1 29 9.9 W 19 28 10 15 1012.0 - 0.0
19/05:00pm 24.6 19.0 5.4 29 10.0 W 24 32 13 17 1011.9 - 0.0
19/04:36pm 24.0 17.4 4.4 28 10.0 WNW 28 52 15 28 1011.7 - 0.0
19/04:30pm 24.2 18.5 5.1 29 9.9 NNW 24 33 13 18 1011.6 - 0.0
19/04:00pm 24.6 20.6 6.8 32 9.5 NW 17 28 9 15 1011.6 - 0.0
19/03:30pm 24.3 20.2 4.1 27 10.3 NW 15 20 8 11 1012.0 - 0.0
19/03:00pm 23.9 19.8 4.3 28 10.0 N 15 22 8 12 1012.0 1009.9 0.0
19/02:30pm 23.7 20.3 4.1 28 9.9 NNW 11 19 6 10 1012.1 - 0.0
19/02:00pm 23.4 18.4 4.4 29 9.7 NW 20 26 11 14 1012.3 - 0.0
19/01:30pm 22.8 19.5 4.8 31 9.2 SSW 11 17 6 9 1012.5 - 0.0
19/01:00pm 22.0 18.1 3.2 29 9.3 WSW 13 17 7 9 1012.6 - 0.0
19/12:30pm 21.0 17.1 3.2 31 8.7 ESE 13 20 7 11 1012.8 - 0.0
19/12:00pm 20.1 16.4 4.2 35 7.9 W 13 19 7 10 1013.1 1011.0 0.0
19/11:30am 19.9 16.6 4.8 37 7.6 N 11 17 6 9 1013.1 - 0.0
19/11:00am 18.8 16.3 3.8 37 7.3 NNE 6 11 3 6 1013.1 - 0.0
19/10:30am 18.9 15.9 6.1 43 6.5 WSW 11 17 6 9 1013.2 - 0.0
19/10:00am 18.3 16.2 5.8 44 6.3 WSW 6 17 3 9 1013.2 - 0.0
19/09:30am 17.5 14.5 6.1 47 5.8 S 11 15 6 8 1013.2 - 0.0
19/09:00am 17.4 15.4 6.9 50 5.4 SSE 7 17 4 9 1013.1 1011.0 0.0
19/08:30am 16.4 13.7 7.3 55 4.7 SE 11 17 6 9 1013.0 - 0.0
19/08:00am 15.8 13.4 7.0 56 4.5 SSW 9 15 5 8 1012.8 - 0.0
19/07:30am 14.6 11.9 7.4 62 3.7 SSE 11 15 6 8 1012.4 - 0.0
19/07:00am 13.3 9.8 7.3 67 3.0 SE 15 19 8 10 1012.0 - 0.0
19/06:30am 10.8 7.9 4.9 67 2.8 E 9 11 5 6 1011.9 - 0.0
19/06:00am 9.8 7.1 3.8 66 2.7 SSE 7 9 4 5 1011.2 1009.1 0.0
19/05:30am 11.0 8.4 3.1 58 3.6 NE 6 9 3 5 1010.6 - 0.0
19/05:00am 10.9 7.5 4.1 63 3.1 N 11 13 6 7 1010.6 - 0.0
19/04:44am 9.3 5.7 2.9 64 2.8 WNW 11 15 6 8 1010.3 - 0.0
19/04:30am 14.3 11.1 2.9 46 5.3 SSW 9 11 5 6 1010.3 - 0.0
19/04:00am 14.5 10.2 3.3 47 5.2 S 15 17 8 9 1010.0 - 0.0
19/03:30am 14.5 10.4 2.1 43 5.6 S 13 15 7 8 1009.6 - 0.0
19/03:00am 16.6 11.2 2.6 39 6.6 SW 20 26 11 14 1009.2 1007.1 0.0
19/02:30am 16.1 12.0 2.2 39 6.4 SSW 13 20 7 11 1009.5 - 0.0
19/02:00am 17.8 12.9 1.7 34 7.5 SW 17 22 9 12 1009.0 - 0.0
19/01:30am 18.5 11.0 1.5 32 7.9 WSW 30 35 16 19 1008.8 - 0.0
19/01:17am 17.9 12.6 3.0 37 7.1 SW 20 26 11 14 1009.2 - 0.0
19/01:00am 12.9 9.9 4.1 55 4.1 ESE 9 13 5 7 1009.2 - 0.0
19/12:30am 17.0 15.2 3.3 40 6.5 ENE 2 7 1 4 1008.9 - 0.0
19/12:00am 18.7 15.5 2.9 35 7.6 W 9 15 5 8 1008.9 1006.8 0.0
 
Date/Time
EDT
Tmp

°C
App
Tmp
°C
Dew
Point
°C
Rel
Hum
%
Delta-T

°C
Wind Press
QNH
hPa
Press
MSL
hPa
Rain
since
9 am
mm
Dir
 
Spd
km/h
Gust
km/h
Spd
kts
Gust
kts
18/11:30pm 19.4 14.6 2.7 33 8.0 W 17 20 9 11 1008.8 - 0.0
18/11:00pm 19.6 15.5 2.5 32 8.2 W 13 17 7 9 1008.6 - 0.0
18/10:30pm 20.0 15.5 2.4 31 8.4 W 15 26 8 14 1008.6 - 0.0
18/10:00pm 20.4 16.3 2.3 30 8.7 W 13 15 7 8 1008.3 - 0.0
18/09:30pm 20.7 16.6 2.0 29 8.9 W 13 15 7 8 1008.3 - 0.0
18/09:00pm 21.8 17.1 0.9 25 9.9 W 15 24 8 13 1008.0 1005.9 0.0
18/08:30pm 22.7 16.9 -0.1 22 10.6 W 20 30 11 16 1007.7 - 0.0
18/08:00pm 23.7 16.7 -0.6 20 11.3 W 26 39 14 21 1007.4 - 0.0
18/07:30pm 24.7 17.3 -0.4 19 11.8 WNW 28 35 15 19 1007.0 - 0.0
18/07:00pm 25.3 18.5 0.7 20 11.8 W 26 35 14 19 1006.7 - 0.0
18/06:42pm 25.5 18.2 0.2 19 12.1 WNW 28 46 15 25 1006.4 - 0.0
18/06:30pm 25.5 18.3 0.9 20 11.9 W 28 33 15 18 1006.5 - 0.0
18/06:00pm 26.1 20.0 2.7 22 11.8 WNW 24 37 13 20 1006.4 1004.2 0.0
18/05:30pm 25.8 17.6 0.5 19 12.2 WNW 33 52 18 28 1006.4 - 0.0
18/05:25pm 26.4 18.6 1.7 20 12.2 WNW 32 52 17 28 1006.2 - 0.0
18/05:00pm 26.2 19.0 2.8 22 11.8 W 30 46 16 25 1006.5 - 0.0
18/04:30pm 26.4 18.7 3.6 23 11.6 W 33 48 18 26 1006.8 - 0.0
18/04:00pm 26.6 19.4 5.0 25 11.3 WNW 32 50 17 27 1006.6 - 0.0
18/03:53pm 26.3 18.8 3.5 23 11.6 WNW 32 50 17 27 1006.6 - 0.0
18/03:30pm 26.8 19.6 5.7 26 11.2 WNW 33 44 18 24 1006.5 - 0.0
18/03:00pm 26.9 21.0 5.8 26 11.3 W 26 43 14 23 1006.4 1004.2 0.0
18/02:30pm 26.4 20.5 5.9 27 10.9 W 26 35 14 19 1006.2 - 0.0
18/02:00pm 25.8 20.7 5.9 28 10.5 W 22 33 12 18 1006.6 - 0.0
18/01:30pm 24.8 21.9 8.3 35 9.1 NW 13 26 7 14 1007.0 - 0.0
18/01:00pm 24.2 19.7 6.9 33 9.2 NNW 20 33 11 18 1007.5 - 0.0
18/12:30pm 24.1 19.0 7.7 35 8.9 NW 24 33 13 18 1007.8 - 0.0
18/12:00pm 23.4 20.4 7.5 36 8.6 W 13 17 7 9 1008.3 1006.1 0.0
18/11:30am 22.6 19.7 8.0 39 7.9 WNW 13 22 7 12 1008.7 - 0.0
18/11:00am 20.9 18.5 7.2 41 7.2 WNW 9 20 5 11 1009.1 - 0.0
18/10:30am 19.7 18.2 10.4 55 5.2 NE 9 13 5 7 1009.4 - 0.0
18/10:00am 18.9 18.0 11.5 62 4.2 NNE 7 13 4 7 1009.8 - 0.0
18/09:30am 17.7 16.2 10.6 63 3.9 NW 9 13 5 7 1010.1 - 0.0
18/09:00am 17.5 16.4 11.8 69 3.2 WNW 9 15 5 8 1010.3 1008.2 0.0
18/08:30am 16.4 15.9 10.7 69 3.1 NE 4 9 2 5 1010.5 - 0.0
18/08:00am 15.2 14.3 10.6 74 2.5 E 6 7 3 4 1010.6 - 0.0
18/07:30am 14.3 13.3 10.9 80 1.9 S 7 9 4 5 1010.6 - 0.0
18/07:00am 13.2 12.2 11.1 87 1.1 S 7 11 4 6 1010.4 - 0.0
18/06:48am 12.7 12.0 11.3 91 0.8 SE 6 7 3 4 1010.2 - 0.0
18/06:30am 11.1 9.4 10.0 93 0.6 SSE 9 9 5 5 1010.3 - 0.0
18/06:00am 10.2 8.3 9.0 92 0.6 S 9 11 5 6 1010.0 1007.8 0.0
18/05:30am 10.2 8.0 9.3 94 0.5 S 11 13 6 7 1009.8 - 0.0
18/05:28am 10.2 8.0 9.3 94 0.5 S 11 13 6 7 1009.8 - 0.0
18/05:00am 9.9 8.2 8.5 91 0.7 SSE 7 9 4 5 1009.5 - 0.0
18/04:30am 10.3 8.7 8.9 91 0.7 SSE 7 7 4 4 1009.7 - 0.0
18/04:00am 11.0 9.6 8.9 87 1.1 SE 6 7 3 4 1009.4 - 0.0
18/03:30am 11.8 10.4 9.4 85 1.2 SSE 7 9 4 5 1009.4 - 0.0
18/03:27am 11.8 10.4 9.4 85 1.2 SSE 7 7 4 4 1009.4 - 0.0
18/03:00am 12.2 10.8 9.4 83 1.5 SE 7 11 4 6 1009.6 1007.5 0.0
18/02:30am 12.8 12.4 9.6 81 1.7 S 2 7 1 4 1010.2 - 0.0
18/02:00am 12.7 11.4 9.3 80 1.8 SSE 6 7 3 4 1010.3 - 0.0
18/01:30am 12.3 10.8 9.1 81 1.7 SE 7 9 4 5 1010.3 - 0.0
18/01:00am 12.2 10.6 8.9 80 1.7 SSE 7 11 4 6 1010.7 - 0.0
18/12:30am 12.5 10.6 9.0 79 1.8 ESE 9 11 5 6 1011.0 - 0.0
18/12:00am 12.5 10.1 8.8 78 1.9 ESE 11 13 6 7 1011.3 1009.2 0.0
 
Date/Time
EDT
Tmp

°C
App
Tmp
°C
Dew
Point
°C
Rel
Hum
%
Delta-T

°C
Wind Press
QNH
hPa
Press
MSL
hPa
Rain
since
9 am
mm
Dir
 
Spd
km/h
Gust
km/h
Spd
kts
Gust
kts
17/11:30pm 12.9 10.2 9.0 77 2.0 E 13 22 7 12 1011.4 - 0.0
17/11:00pm 13.2 10.5 9.1 76 2.1 E 13 17 7 9 1011.6 - 0.0
17/10:30pm 13.3 10.3 9.2 76 2.1 E 15 24 8 13 1011.5 - 0.0
17/10:11pm 13.2 9.8 9.3 77 2.0 E 17 28 9 15 1011.4 - 0.0
17/10:00pm 13.0 10.3 9.1 77 2.0 E 13 19 7 10 1011.3 - 0.0
17/09:30pm 13.2 10.5 8.9 75 2.2 E 13 24 7 13 1010.6 - 0.0
17/09:00pm 13.5 8.3 8.8 73 2.4 E 26 35 14 19 1009.6 1007.5 0.0
17/08:30pm 14.1 7.6 8.9 71 2.7 E 33 41 18 22 1009.2 - 0.0
17/08:00pm 15.2 9.3 9.1 67 3.2 E 30 37 16 20 1008.8 - 0.0
17/07:30pm 16.7 10.9 9.6 63 3.8 ENE 30 39 16 21 1008.2 - 0.0
17/07:00pm 18.5 12.4 9.8 57 4.7 ENE 32 41 17 22 1007.5 - 0.0
17/06:30pm 20.4 14.7 9.9 51 5.8 ENE 30 37 16 20 1006.8 - 0.0
17/06:00pm 22.9 19.1 9.7 43 7.4 NE 20 30 11 16 1006.2 1004.1 0.0
17/05:30pm 25.1 18.1 -3.3 15 12.7 N 24 35 13 19 1006.0 - 0.0
17/05:00pm 25.1 18.7 -1.6 17 12.3 N 22 32 12 17 1006.0 - 0.0
17/04:30pm 25.5 20.6 2.2 22 11.5 NNW 17 28 9 15 1006.1 - 0.0
17/04:00pm 25.0 19.2 -1.7 17 12.3 N 19 28 10 15 1006.2 - 0.0
17/03:30pm 25.1 19.4 0.6 20 11.7 NNW 20 26 11 14 1006.1 - 0.0

Latest Capital City Observations: Canberra | Sydney | Melbourne | Brisbane | Adelaide | Perth | Hobart | Darwin

Other Formats:

Comma delimited format used in spreadsheet applications
http://www.bom.gov.au/fwo/IDN60903/IDN60903.94926.axf

JavaScript Object Notation format (JSON) in row-major order
http://www.bom.gov.au/fwo/IDN60903/IDN60903.94926.json